createdAt,value
2024-03-10T00:00:18.236Z,5.76
2024-03-10T00:02:46.171Z,5.66
2024-03-10T00:05:14.568Z,5.59
2024-03-10T00:07:42.824Z,5.67
2024-03-10T00:10:11.435Z,5.71
2024-03-10T00:12:38.784Z,5.58
2024-03-10T00:15:06.556Z,5.59
2024-03-10T00:17:33.846Z,5.58
2024-03-10T00:20:01.309Z,5.60
2024-03-10T00:22:28.653Z,5.61
2024-03-10T00:24:55.941Z,5.64
2024-03-10T00:27:23.225Z,5.57
2024-03-10T00:29:50.642Z,5.51
2024-03-10T00:32:18.038Z,5.49
2024-03-10T00:34:45.374Z,5.49
2024-03-10T00:37:12.765Z,5.38
2024-03-10T00:39:40.076Z,5.37
2024-03-10T00:42:07.379Z,5.33
2024-03-10T00:44:34.634Z,5.25
2024-03-10T00:47:01.976Z,5.15
2024-03-10T00:49:29.326Z,5.18
2024-03-10T00:51:56.888Z,5.24
2024-03-10T00:54:24.141Z,5.20
2024-03-10T00:56:51.472Z,5.10
2024-03-10T00:59:18.768Z,5.19
2024-03-10T01:01:46.207Z,5.09
2024-03-10T01:04:15.048Z,5.10
2024-03-10T01:06:43.274Z,5.06
2024-03-10T01:09:11.521Z,5.00
2024-03-10T01:11:41.109Z,4.92
2024-03-10T01:14:08.463Z,4.83
2024-03-10T01:16:35.771Z,4.85
2024-03-10T01:19:03.149Z,4.98
2024-03-10T01:21:30.423Z,4.95
2024-03-10T01:23:57.694Z,4.95
2024-03-10T01:26:25.634Z,4.93
2024-03-10T01:28:53.170Z,4.91
2024-03-10T01:31:20.463Z,4.86
2024-03-10T01:33:49.151Z,4.79
2024-03-10T01:36:16.960Z,4.73
2024-03-10T01:38:44.454Z,4.76
2024-03-10T01:41:13.305Z,4.74
2024-03-10T01:43:44.853Z,4.85
2024-03-10T01:46:12.189Z,4.84
2024-03-10T01:48:40.655Z,4.78
2024-03-10T01:51:08.246Z,4.70
2024-03-10T01:53:35.899Z,4.68
2024-03-10T01:56:05.008Z,4.69
2024-03-10T01:58:33.107Z,4.66
2024-03-10T02:01:05.461Z,4.72
2024-03-10T02:03:33.108Z,4.76
2024-03-10T02:06:00.509Z,4.83
2024-03-10T02:08:30.115Z,4.82
2024-03-10T02:10:57.559Z,4.79
2024-03-10T02:13:24.877Z,4.71
2024-03-10T02:16:01.603Z,4.69
2024-03-10T02:18:29.422Z,4.64
2024-03-10T02:20:57.167Z,4.70
2024-03-10T02:23:25.952Z,4.71
2024-03-10T02:25:54.121Z,4.82
2024-03-10T02:28:37.514Z,4.82
2024-03-10T02:31:26.233Z,4.86
2024-03-10T02:34:12.367Z,4.82
2024-03-10T02:36:58.556Z,4.54
2024-03-10T02:39:44.514Z,4.40
2024-03-10T02:42:30.524Z,4.34
2024-03-10T02:45:16.069Z,4.35
2024-03-10T02:47:44.076Z,4.37
2024-03-10T02:50:11.545Z,4.46
2024-03-10T02:52:38.880Z,4.38
2024-03-10T02:55:07.984Z,4.35
2024-03-10T02:57:35.261Z,4.31
2024-03-10T03:00:02.558Z,4.29
2024-03-10T03:02:30.918Z,4.29
2024-03-10T03:04:58.569Z,4.25
2024-03-10T03:07:25.923Z,4.13
2024-03-10T03:09:53.556Z,4.22
2024-03-10T03:12:20.867Z,4.25
2024-03-10T03:14:48.180Z,4.27
2024-03-10T03:17:15.699Z,4.25
2024-03-10T03:19:43.239Z,4.24
2024-03-10T03:22:11.494Z,4.15
2024-03-10T03:24:38.761Z,4.10
2024-03-10T03:27:06.244Z,4.03
2024-03-10T03:29:33.695Z,4.02
2024-03-10T03:32:01.175Z,4.00
2024-03-10T03:34:28.494Z,3.86
2024-03-10T03:36:55.777Z,3.81
2024-03-10T03:39:23.036Z,3.89
2024-03-10T03:41:50.357Z,3.90
2024-03-10T03:44:19.616Z,3.92
2024-03-10T03:46:47.014Z,4.01
2024-03-10T03:49:15.194Z,3.97
2024-03-10T03:51:44.068Z,3.94
2024-03-10T03:54:11.375Z,3.89
2024-03-10T03:56:38.672Z,3.84
2024-03-10T03:59:06.051Z,3.78
2024-03-10T04:01:35.929Z,3.75
2024-03-10T04:04:03.744Z,3.78
2024-03-10T04:06:31.301Z,3.74
2024-03-10T04:08:59.080Z,3.74
2024-03-10T04:11:26.787Z,3.71
2024-03-10T04:13:54.201Z,3.76
2024-03-10T04:16:21.466Z,3.75
2024-03-10T04:18:50.450Z,3.72
2024-03-10T04:21:18.308Z,3.78
2024-03-10T04:23:45.655Z,3.83
2024-03-10T04:26:13.073Z,3.90
2024-03-10T04:28:40.425Z,3.86
2024-03-10T04:31:07.762Z,3.75
2024-03-10T04:33:36.208Z,3.65
2024-03-10T04:36:03.612Z,3.64
2024-03-10T04:38:31.231Z,3.64
2024-03-10T04:40:58.753Z,3.60
2024-03-10T04:43:26.136Z,3.55
2024-03-10T04:45:54.566Z,3.43
2024-03-10T04:48:21.894Z,3.42
2024-03-10T04:50:49.463Z,3.39
2024-03-10T04:53:16.982Z,3.39
2024-03-10T04:55:45.325Z,3.35
2024-03-10T04:58:12.712Z,3.30
2024-03-10T05:00:40.593Z,3.27
2024-03-10T05:03:08.031Z,3.29
2024-03-10T05:05:35.394Z,3.28
2024-03-10T05:08:02.798Z,3.33
2024-03-10T05:10:30.048Z,3.34
2024-03-10T05:12:57.550Z,3.36
2024-03-10T05:15:24.814Z,3.37
2024-03-10T05:17:52.696Z,3.37
2024-03-10T05:20:22.882Z,3.38
2024-03-10T05:22:50.533Z,3.43
2024-03-10T05:25:17.872Z,3.57
2024-03-10T05:27:46.729Z,3.52
2024-03-10T05:30:14.170Z,3.50
2024-03-10T05:32:41.725Z,3.42
2024-03-10T05:35:10.866Z,3.50
2024-03-10T05:37:38.454Z,3.65
2024-03-10T05:40:07.668Z,3.74
2024-03-10T05:42:35.158Z,3.80
2024-03-10T05:45:03.966Z,3.95
2024-03-10T05:47:31.632Z,3.97
2024-03-10T05:49:59.057Z,4.04
2024-03-10T05:52:27.498Z,4.10
2024-03-10T05:54:54.788Z,4.20
2024-03-10T05:57:22.019Z,4.24
2024-03-10T05:59:49.344Z,4.35
2024-03-10T06:02:17.615Z,4.39
2024-03-10T06:04:46.010Z,4.52
2024-03-10T06:07:13.583Z,4.63
2024-03-10T06:09:41.221Z,4.74
2024-03-10T06:12:08.871Z,4.84
2024-03-10T06:14:36.268Z,4.92
2024-03-10T06:17:05.749Z,4.98
2024-03-10T06:19:51.581Z,5.08
2024-03-10T06:22:37.269Z,5.11
2024-03-10T06:25:23.534Z,5.15
2024-03-10T06:27:52.462Z,5.18
2024-03-10T06:30:22.601Z,5.22
2024-03-10T06:32:51.351Z,5.25
2024-03-10T06:35:19.056Z,5.26
2024-03-10T06:37:47.773Z,5.37
2024-03-10T06:40:15.398Z,5.42
2024-03-10T06:42:45.798Z,5.47
2024-03-10T06:45:14.311Z,5.48
2024-03-10T06:47:42.945Z,5.52
2024-03-10T06:50:11.215Z,5.56
2024-03-10T06:52:39.267Z,5.66
2024-03-10T06:55:07.547Z,5.74
2024-03-10T06:57:35.001Z,5.75
2024-03-10T07:00:02.569Z,5.89
2024-03-10T07:02:30.702Z,5.89
2024-03-10T07:05:02.089Z,5.94
2024-03-10T07:07:30.612Z,5.99
2024-03-10T07:09:57.905Z,6.01
2024-03-10T07:12:25.304Z,6.10
2024-03-10T07:14:52.665Z,6.17
2024-03-10T07:17:20.169Z,6.23
2024-03-10T07:19:47.482Z,6.37
2024-03-10T07:22:14.781Z,6.40
2024-03-10T07:24:42.064Z,6.49
2024-03-10T07:27:10.352Z,6.56
2024-03-10T07:29:38.404Z,6.60
2024-03-10T07:32:07.170Z,6.77
2024-03-10T07:34:34.657Z,6.91
2024-03-10T07:37:02.395Z,6.89
2024-03-10T07:39:29.753Z,7.02
2024-03-10T07:41:58.355Z,7.03
2024-03-10T07:44:26.486Z,7.04
2024-03-10T07:46:54.725Z,7.17
2024-03-10T07:49:22.035Z,7.12
2024-03-10T07:51:49.383Z,7.26
2024-03-10T07:54:16.772Z,7.35
2024-03-10T07:56:44.138Z,7.45
2024-03-10T07:59:12.666Z,7.56
2024-03-10T08:01:40.076Z,7.50
2024-03-10T08:04:07.391Z,7.55
2024-03-10T08:06:34.701Z,7.56
2024-03-10T08:09:04.499Z,7.73
2024-03-10T08:11:32.146Z,7.79
2024-03-10T08:14:00.542Z,7.92
2024-03-10T08:16:28.237Z,7.74
2024-03-10T08:18:55.776Z,7.86
2024-03-10T08:21:24.573Z,7.95
2024-03-10T08:23:51.888Z,8.10
2024-03-10T08:26:19.274Z,8.18
2024-03-10T08:28:48.188Z,8.02
2024-03-10T08:31:15.785Z,8.07
2024-03-10T08:33:43.100Z,8.26
2024-03-10T08:36:10.368Z,8.27
2024-03-10T08:38:38.361Z,7.99
2024-03-10T08:41:06.313Z,7.84
2024-03-10T08:43:34.628Z,8.02
2024-03-10T08:46:03.907Z,8.26
2024-03-10T08:48:31.443Z,8.35
2024-03-10T08:50:58.843Z,8.43
2024-03-10T08:53:26.703Z,8.58
2024-03-10T08:55:55.672Z,8.61
2024-03-10T08:58:23.061Z,8.81
2024-03-10T09:00:51.171Z,8.88
2024-03-10T09:03:18.454Z,8.86
2024-03-10T09:05:48.049Z,8.64
2024-03-10T09:08:15.479Z,8.50
2024-03-10T09:10:52.851Z,8.46
2024-03-10T09:13:25.695Z,8.39
2024-03-10T09:15:52.972Z,8.24
2024-03-10T09:18:20.261Z,8.24
2024-03-10T09:20:47.670Z,8.24
2024-03-10T09:23:15.068Z,8.21
2024-03-10T09:25:43.537Z,8.21
2024-03-10T09:28:10.865Z,8.24
2024-03-10T09:30:38.432Z,8.31
2024-03-10T09:33:10.943Z,8.31
2024-03-10T09:35:38.435Z,8.33
2024-03-10T09:38:06.449Z,8.33
2024-03-10T09:40:34.415Z,8.40
2024-03-10T09:43:08.586Z,8.46
2024-03-10T09:45:41.758Z,8.49
2024-03-10T09:48:11.951Z,8.48
2024-03-10T09:50:45.198Z,8.53
2024-03-10T09:53:13.917Z,8.46
2024-03-10T09:55:42.413Z,8.68
2024-03-10T09:58:18.148Z,8.62
2024-03-10T10:00:51.882Z,8.56
2024-03-10T10:03:19.520Z,8.70
2024-03-10T10:05:56.020Z,8.69
2024-03-10T10:08:24.089Z,8.79
2024-03-10T10:10:51.540Z,8.88
2024-03-10T10:13:23.722Z,8.86
2024-03-10T10:15:53.421Z,8.88
2024-03-10T10:18:22.439Z,9.08
2024-03-10T10:20:50.075Z,9.25
2024-03-10T10:23:17.434Z,9.32
2024-03-10T10:25:46.809Z,9.53
2024-03-10T10:28:14.620Z,9.66
2024-03-10T10:30:43.082Z,9.73
2024-03-10T10:33:15.554Z,9.81
2024-03-10T10:35:49.220Z,9.83
2024-03-10T10:38:16.888Z,9.84
2024-03-10T10:40:49.535Z,9.93
2024-03-10T10:43:21.229Z,9.90
2024-03-10T10:45:49.852Z,9.65
2024-03-10T10:48:21.653Z,9.61
2024-03-10T10:50:49.790Z,9.66
2024-03-10T10:53:17.425Z,9.59
2024-03-10T10:55:46.419Z,9.43
2024-03-10T10:58:18.244Z,9.44
2024-03-10T11:00:54.838Z,9.68
2024-03-10T11:03:30.038Z,9.87
2024-03-10T11:06:03.314Z,10.08
2024-03-10T11:08:34.566Z,10.56
2024-03-10T11:11:02.738Z,10.98
2024-03-10T11:13:30.180Z,10.97
2024-03-10T11:16:19.185Z,10.91
2024-03-10T11:18:46.546Z,11.03
2024-03-10T11:21:19.169Z,11.05
2024-03-10T11:23:47.569Z,11.10
2024-03-10T11:26:19.396Z,11.03
2024-03-10T11:28:57.194Z,11.20
2024-03-10T11:31:24.526Z,11.60
2024-03-10T11:33:52.332Z,11.68
2024-03-10T11:36:23.362Z,11.65
2024-03-10T11:38:51.479Z,11.76
2024-03-10T11:41:22.334Z,12.08
2024-03-10T11:43:50.463Z,12.16
2024-03-10T11:46:37.156Z,12.05
2024-03-10T11:49:04.505Z,11.84
2024-03-10T11:51:34.794Z,11.86
2024-03-10T11:54:05.584Z,11.93
2024-03-10T11:56:35.949Z,12.19
2024-03-10T11:59:05.132Z,12.29
2024-03-10T12:01:32.579Z,12.75
2024-03-10T12:04:10.618Z,12.92
2024-03-10T12:06:38.207Z,12.96
2024-03-10T12:09:14.879Z,12.62
2024-03-10T12:11:43.357Z,12.47
2024-03-10T12:14:12.594Z,12.41
2024-03-10T12:16:40.745Z,12.88
2024-03-10T12:19:08.035Z,12.69
2024-03-10T12:21:37.360Z,12.31
2024-03-10T12:24:05.983Z,12.21
2024-03-10T12:26:33.749Z,12.22
2024-03-10T12:29:01.094Z,12.23
2024-03-10T12:31:30.343Z,12.23
2024-03-10T12:33:58.370Z,12.31
2024-03-10T12:36:25.694Z,12.37
2024-03-10T12:38:54.251Z,12.48
2024-03-10T12:41:24.930Z,12.65
2024-03-10T12:43:56.539Z,12.56
2024-03-10T12:46:24.989Z,12.17
2024-03-10T12:48:54.379Z,12.32
2024-03-10T12:51:22.019Z,12.39
2024-03-10T12:53:49.861Z,12.26
2024-03-10T12:56:17.995Z,12.36
2024-03-10T12:58:46.950Z,12.42
2024-03-10T13:01:17.813Z,12.39
2024-03-10T13:03:45.748Z,12.47
2024-03-10T13:06:15.841Z,12.40
2024-03-10T13:08:44.819Z,12.58
2024-03-10T13:11:15.114Z,12.89
2024-03-10T13:13:44.896Z,13.16
2024-03-10T13:16:13.315Z,13.17
2024-03-10T13:18:44.256Z,13.17
2024-03-10T13:21:11.840Z,13.20
2024-03-10T13:23:39.226Z,13.02
2024-03-10T13:26:06.628Z,12.83
2024-03-10T13:28:34.960Z,12.52
2024-03-10T13:31:03.955Z,12.57
2024-03-10T13:33:31.293Z,12.87
2024-03-10T13:36:06.695Z,13.18
2024-03-10T13:38:41.283Z,13.23
2024-03-10T13:41:10.568Z,13.48
2024-03-10T13:43:44.415Z,13.63
2024-03-10T13:46:13.960Z,13.30
2024-03-10T13:48:42.888Z,13.35
2024-03-10T13:51:10.936Z,13.22
2024-03-10T13:53:38.366Z,13.53
2024-03-10T13:56:06.235Z,13.80
2024-03-10T13:58:33.574Z,13.85
2024-03-10T14:01:00.934Z,13.72
2024-03-10T14:03:28.238Z,13.92
2024-03-10T14:05:55.532Z,14.24
2024-03-10T14:08:22.863Z,14.27
2024-03-10T14:10:50.190Z,14.47
2024-03-10T14:13:17.683Z,14.31
2024-03-10T14:15:45.094Z,14.77
2024-03-10T14:18:14.349Z,14.92
2024-03-10T14:20:41.841Z,14.88
2024-03-10T14:23:09.300Z,14.40
2024-03-10T14:25:39.271Z,14.07
2024-03-10T14:28:07.985Z,13.96
2024-03-10T14:30:35.293Z,13.89
2024-03-10T14:33:04.517Z,13.92
2024-03-10T14:35:32.157Z,13.79
2024-03-10T14:38:00.256Z,13.78
2024-03-10T14:40:27.597Z,13.31
2024-03-10T14:42:56.428Z,13.07
2024-03-10T14:45:23.993Z,12.86
2024-03-10T14:47:52.507Z,12.86
2024-03-10T14:50:24.972Z,12.78
2024-03-10T14:52:56.068Z,12.88
2024-03-10T14:55:24.688Z,12.82
2024-03-10T14:57:52.119Z,12.72
2024-03-10T15:00:38.895Z,12.54
2024-03-10T15:03:12.800Z,12.46
2024-03-10T15:05:41.160Z,12.49
2024-03-10T15:08:10.289Z,12.30
2024-03-10T15:10:37.886Z,12.21
2024-03-10T15:13:08.836Z,12.00
2024-03-10T15:15:36.578Z,11.86
2024-03-10T15:18:04.752Z,11.79
2024-03-10T15:20:32.284Z,11.69
2024-03-10T15:23:02.526Z,11.80
2024-03-10T15:25:35.732Z,11.85
2024-03-10T15:28:04.406Z,11.84
2024-03-10T15:30:31.946Z,11.80
2024-03-10T15:32:59.370Z,11.80
2024-03-10T15:35:26.812Z,11.78
2024-03-10T15:37:54.569Z,11.80
2024-03-10T15:40:22.682Z,11.70
2024-03-10T15:42:50.450Z,11.48
2024-03-10T15:45:18.802Z,11.37
2024-03-10T15:47:49.673Z,11.34
2024-03-10T15:50:20.329Z,11.28
2024-03-10T15:52:51.296Z,11.20
2024-03-10T15:55:22.613Z,11.21
2024-03-10T15:57:50.982Z,11.14
2024-03-10T16:00:22.121Z,11.06
2024-03-10T16:03:00.273Z,10.96
2024-03-10T16:05:35.968Z,10.99
2024-03-10T16:08:07.033Z,10.96
2024-03-10T16:10:35.750Z,10.98
2024-03-10T16:13:07.113Z,10.97
2024-03-10T16:15:37.385Z,10.89
2024-03-10T16:18:07.294Z,10.87
2024-03-10T16:20:35.193Z,10.82
2024-03-10T16:23:03.735Z,10.73
2024-03-10T16:25:31.130Z,10.79
2024-03-10T16:27:58.462Z,10.77
2024-03-10T16:30:27.006Z,10.65
2024-03-10T16:32:56.036Z,10.60
2024-03-10T16:35:23.546Z,10.50
2024-03-10T16:37:53.350Z,10.51
2024-03-10T16:40:20.714Z,10.42
2024-03-10T16:42:48.040Z,10.36
2024-03-10T16:45:17.644Z,10.32
2024-03-10T16:47:46.967Z,10.27
2024-03-10T16:50:25.978Z,10.20
2024-03-10T16:52:55.189Z,10.23
2024-03-10T16:55:24.900Z,10.18
2024-03-10T16:58:01.021Z,10.17
2024-03-10T17:00:31.970Z,10.19
2024-03-10T17:03:06.110Z,10.21
2024-03-10T17:05:37.294Z,10.20
2024-03-10T17:08:06.295Z,10.20
2024-03-10T17:10:33.921Z,10.16
2024-03-10T17:13:01.403Z,10.15
2024-03-10T17:15:29.105Z,10.13
2024-03-10T17:17:56.566Z,10.14
2024-03-10T17:20:25.171Z,10.14
2024-03-10T17:22:52.659Z,10.10
2024-03-10T17:25:19.966Z,10.08
2024-03-10T17:27:47.284Z,10.08
2024-03-10T17:30:17.617Z,10.07
2024-03-10T17:32:49.791Z,10.05
2024-03-10T17:35:20.168Z,10.09
2024-03-10T17:37:47.508Z,10.05
2024-03-10T17:40:15.322Z,10.06
2024-03-10T17:42:42.820Z,10.06
2024-03-10T17:45:12.568Z,10.09
2024-03-10T17:47:40.504Z,10.10
2024-03-10T17:50:09.252Z,10.10
2024-03-10T17:52:36.953Z,10.10
2024-03-10T17:55:10.108Z,10.08
2024-03-10T17:57:37.533Z,10.13
2024-03-10T18:00:06.514Z,10.13
2024-03-10T18:02:34.986Z,10.13
2024-03-10T18:05:04.260Z,10.12
2024-03-10T18:07:33.022Z,10.12
2024-03-10T18:10:01.565Z,10.11
2024-03-10T18:12:29.238Z,10.10
2024-03-10T18:14:56.634Z,10.10
2024-03-10T18:17:24.047Z,10.10
2024-03-10T18:19:51.453Z,10.05
2024-03-10T18:22:19.005Z,10.01
2024-03-10T18:24:46.300Z,9.97
2024-03-10T18:27:14.492Z,9.92
2024-03-10T18:29:42.863Z,9.91
2024-03-10T18:32:10.491Z,9.89
2024-03-10T18:34:39.003Z,9.96
2024-03-10T18:37:06.861Z,9.99
2024-03-10T18:39:34.696Z,9.96
2024-03-10T18:42:02.241Z,9.94
2024-03-10T18:44:29.798Z,9.94
2024-03-10T18:46:58.152Z,9.94
2024-03-10T18:49:29.364Z,9.99
2024-03-10T18:51:56.971Z,9.99
2024-03-10T18:54:26.088Z,9.91
2024-03-10T18:56:53.770Z,9.82
2024-03-10T18:59:21.366Z,9.82
2024-03-10T19:01:49.316Z,9.77
2024-03-10T19:04:16.654Z,9.72
2024-03-10T19:06:45.653Z,9.75
2024-03-10T19:09:19.038Z,9.71
2024-03-10T19:11:46.818Z,9.75
2024-03-10T19:14:14.400Z,9.71
2024-03-10T19:16:41.837Z,9.69
2024-03-10T19:19:10.006Z,9.65
2024-03-10T19:21:39.586Z,9.60
2024-03-10T19:24:07.653Z,9.52
2024-03-10T19:26:35.193Z,9.46
2024-03-10T19:29:03.119Z,9.42
2024-03-10T19:31:30.524Z,9.43
2024-03-10T19:33:57.799Z,9.45
2024-03-10T19:36:26.203Z,9.46
2024-03-10T19:38:54.643Z,9.43
2024-03-10T19:41:22.018Z,9.36
2024-03-10T19:43:50.472Z,9.34
2024-03-10T19:46:18.427Z,9.30
2024-03-10T19:48:45.782Z,9.29
2024-03-10T19:51:13.625Z,9.29
2024-03-10T19:53:41.357Z,9.32
2024-03-10T19:56:08.893Z,9.25
2024-03-10T19:58:36.251Z,9.17
2024-03-10T20:01:03.953Z,9.16
2024-03-10T20:03:31.337Z,9.16
2024-03-10T20:05:59.246Z,9.12
2024-03-10T20:08:26.629Z,9.09
2024-03-10T20:10:53.992Z,9.02
2024-03-10T20:13:21.291Z,9.01
2024-03-10T20:15:48.571Z,9.02
2024-03-10T20:18:16.115Z,9.01
2024-03-10T20:20:45.451Z,8.98
2024-03-10T20:23:13.845Z,8.97
2024-03-10T20:25:41.352Z,8.91
2024-03-10T20:28:08.615Z,8.88
2024-03-10T20:30:35.872Z,8.86
2024-03-10T20:33:03.323Z,8.82
2024-03-10T20:35:30.825Z,8.82
2024-03-10T20:37:58.259Z,8.82
2024-03-10T20:40:25.730Z,8.78
2024-03-10T20:42:53.063Z,8.70
2024-03-10T20:45:20.456Z,8.68
2024-03-10T20:47:51.406Z,8.65
2024-03-10T20:50:24.105Z,8.70
2024-03-10T20:52:53.503Z,8.68
2024-03-10T20:55:21.323Z,8.76
2024-03-10T20:57:48.790Z,8.72
2024-03-10T21:00:20.689Z,8.74
2024-03-10T21:02:49.617Z,8.80
2024-03-10T21:05:18.288Z,8.82
2024-03-10T21:07:45.779Z,8.84
2024-03-10T21:10:16.336Z,8.77
2024-03-10T21:12:47.319Z,8.82
2024-03-10T21:15:15.969Z,8.84
2024-03-10T21:17:43.853Z,8.82
2024-03-10T21:20:14.577Z,8.71
2024-03-10T21:22:42.165Z,8.73
2024-03-10T21:25:10.438Z,8.71
2024-03-10T21:27:48.144Z,8.67
2024-03-10T21:30:21.358Z,8.65
2024-03-10T21:32:49.028Z,8.68
2024-03-10T21:35:17.186Z,8.73
2024-03-10T21:37:44.891Z,8.79
2024-03-10T21:40:13.660Z,8.65
2024-03-10T21:42:41.986Z,8.60
2024-03-10T21:45:10.114Z,8.53
2024-03-10T21:47:41.307Z,8.52
2024-03-10T21:50:11.686Z,8.64
2024-03-10T21:52:40.136Z,8.67
2024-03-10T21:55:08.363Z,8.55
2024-03-10T21:57:35.891Z,8.57
2024-03-10T22:00:12.280Z,8.51
2024-03-10T22:02:39.612Z,8.51
2024-03-10T22:05:07.514Z,8.48
2024-03-10T22:07:35.019Z,8.43
2024-03-10T22:10:02.471Z,8.41
2024-03-10T22:12:29.873Z,8.45
2024-03-10T22:14:57.485Z,8.47
2024-03-10T22:17:24.939Z,8.42
2024-03-10T22:19:52.347Z,8.47
2024-03-10T22:22:20.576Z,8.44
2024-03-10T22:24:47.929Z,8.40
2024-03-10T22:27:15.293Z,8.34
2024-03-10T22:29:45.876Z,8.39
2024-03-10T22:32:13.532Z,8.41
2024-03-10T22:34:40.860Z,8.30
2024-03-10T22:37:08.336Z,8.29
2024-03-10T22:39:35.841Z,8.31
2024-03-10T22:42:03.463Z,8.31
2024-03-10T22:44:36.125Z,8.30
2024-03-10T22:47:07.337Z,8.25
2024-03-10T22:49:34.666Z,8.22
2024-03-10T22:52:01.934Z,8.16
2024-03-10T22:54:29.238Z,8.13
2024-03-10T22:56:56.915Z,8.13
2024-03-10T22:59:26.758Z,8.09
2024-03-10T23:01:54.112Z,8.10
2024-03-10T23:04:23.810Z,8.14
2024-03-10T23:06:51.118Z,8.12
2024-03-10T23:09:22.083Z,8.18
2024-03-10T23:11:49.690Z,8.13
2024-03-10T23:14:17.007Z,8.14
2024-03-10T23:16:44.479Z,8.16
2024-03-10T23:19:11.856Z,8.14
2024-03-10T23:21:39.180Z,8.12
2024-03-10T23:24:10.626Z,8.10
2024-03-10T23:26:37.965Z,8.11
2024-03-10T23:29:05.399Z,8.18
2024-03-10T23:31:32.705Z,8.27
2024-03-10T23:33:59.954Z,8.31
2024-03-10T23:36:27.826Z,8.31
2024-03-10T23:38:55.128Z,8.30
2024-03-10T23:41:22.518Z,8.26
2024-03-10T23:43:49.835Z,8.27
2024-03-10T23:46:18.671Z,8.30
2024-03-10T23:48:46.341Z,8.34
2024-03-10T23:51:13.731Z,8.33
2024-03-10T23:53:41.194Z,8.32
2024-03-10T23:56:10.063Z,8.25
2024-03-10T23:58:37.940Z,8.27
